createdAt,value
2023-01-28T00:01:46.502Z,98082.22
2023-01-28T00:04:49.385Z,98083.38
2023-01-28T00:07:52.628Z,98083.09
2023-01-28T00:10:55.872Z,98088.41
2023-01-28T00:13:58.579Z,98090.38
2023-01-28T00:17:02.103Z,98098.94
2023-01-28T00:20:05.824Z,98093.41
2023-01-28T00:23:09.501Z,98091.91
2023-01-28T00:26:14.568Z,98086.16
2023-01-28T00:29:19.304Z,98094.50
2023-01-28T00:32:21.937Z,98091.91
2023-01-28T00:35:24.724Z,98097.75
2023-01-28T00:38:27.986Z,98092.34
2023-01-28T00:41:31.422Z,98084.34
2023-01-28T00:44:34.211Z,98093.56
2023-01-28T00:47:38.914Z,98085.31
2023-01-28T00:50:41.766Z,98091.59
2023-01-28T00:53:44.918Z,98090.75
2023-01-28T00:56:47.843Z,98090.06
2023-01-28T00:59:50.519Z,98089.63
2023-01-28T01:02:54.152Z,98101.53
2023-01-28T01:05:58.351Z,98085.22
2023-01-28T01:09:01.873Z,98090.53
2023-01-28T01:12:04.685Z,98093.25
2023-01-28T01:15:11.094Z,98093.75
2023-01-28T01:18:13.723Z,98089.41
2023-01-28T01:21:19.389Z,98083.22
2023-01-28T01:24:22.033Z,98092.22
2023-01-28T01:27:26.962Z,98085.69
2023-01-28T01:30:29.584Z,98094.03
2023-01-28T01:33:33.369Z,98099.94
2023-01-28T01:36:36.329Z,98094.13
2023-01-28T01:39:39.057Z,98102.00
2023-01-28T01:42:42.093Z,98094.78
2023-01-28T01:45:50.560Z,98104.41
2023-01-28T01:48:53.932Z,98098.13
2023-01-28T01:52:03.828Z,98107.75
2023-01-28T01:55:12.773Z,98109.56
2023-01-28T01:58:19.961Z,98111.91
2023-01-28T02:01:25.234Z,98106.56
2023-01-28T02:04:31.779Z,98108.06
2023-01-28T02:07:35.019Z,98105.41
2023-01-28T02:10:37.646Z,98110.41
2023-01-28T02:13:42.660Z,98103.72
2023-01-28T02:16:45.198Z,98106.75
2023-01-28T02:19:56.646Z,98116.63
2023-01-28T02:23:47.105Z,98110.34
2023-01-28T02:26:56.141Z,98103.72
2023-01-28T02:30:12.927Z,98100.63
2023-01-28T02:33:20.083Z,98106.59
2023-01-28T02:36:25.731Z,98113.59
2023-01-28T02:39:35.932Z,98110.72
2023-01-28T02:42:40.091Z,98105.41
2023-01-28T02:46:01.211Z,98110.63
2023-01-28T02:49:06.968Z,98104.66
2023-01-28T02:52:47.003Z,98104.81
2023-01-28T02:56:03.396Z,98103.66
2023-01-28T02:59:30.886Z,98103.06
2023-01-28T03:02:43.342Z,98104.13
2023-01-28T03:06:04.565Z,98100.56
2023-01-28T03:09:28.183Z,98105.41
2023-01-28T03:12:50.763Z,98100.91
2023-01-28T03:16:12.072Z,98107.81
2023-01-28T03:19:34.204Z,98104.13
2023-01-28T03:22:57.752Z,98106.03
2023-01-28T03:26:20.292Z,98099.78
2023-01-28T03:29:42.751Z,98111.84
2023-01-28T03:33:07.195Z,98110.88
2023-01-28T03:36:29.376Z,98098.81
2023-01-28T03:39:32.510Z,98111.00
2023-01-28T03:42:37.672Z,98111.44
2023-01-28T03:46:00.161Z,98116.03
2023-01-28T03:49:03.322Z,98111.47
2023-01-28T03:52:06.970Z,98106.00
2023-01-28T03:55:14.646Z,98119.00
2023-01-28T03:58:19.669Z,98118.75
2023-01-28T04:01:22.399Z,98117.69
2023-01-28T04:04:25.236Z,98109.97
2023-01-28T04:07:31.303Z,98113.50
2023-01-28T04:10:49.559Z,98109.34
2023-01-28T04:14:00.834Z,98118.59
2023-01-28T04:17:12.309Z,98129.44
2023-01-28T04:20:16.407Z,98119.03
2023-01-28T04:23:19.918Z,98124.41
2023-01-28T04:26:22.877Z,98126.81
2023-01-28T04:29:26.251Z,98124.53
2023-01-28T04:32:34.256Z,98127.06
2023-01-28T04:35:41.667Z,98126.09
2023-01-28T04:38:56.505Z,98136.34
2023-01-28T04:42:12.162Z,98135.22
2023-01-28T04:45:33.338Z,98138.44
2023-01-28T04:48:49.255Z,98143.72
2023-01-28T04:51:57.489Z,98140.47
2023-01-28T04:55:20.277Z,98140.38
2023-01-28T04:58:24.195Z,98148.88
2023-01-28T05:01:29.917Z,98142.94
2023-01-28T05:04:33.344Z,98140.81
2023-01-28T05:07:37.272Z,98146.91
2023-01-28T05:10:40.705Z,98149.31
2023-01-28T05:13:43.296Z,98152.25
2023-01-28T05:16:48.434Z,98154.66
2023-01-28T05:19:51.243Z,98157.81
2023-01-28T05:22:57.705Z,98158.09
2023-01-28T05:26:06.046Z,98162.75
2023-01-28T05:29:10.225Z,98159.97
2023-01-28T05:32:12.992Z,98162.22
2023-01-28T05:35:15.887Z,98153.63
2023-01-28T05:38:20.023Z,98165.03
2023-01-28T05:41:22.781Z,98164.22
2023-01-28T05:44:31.688Z,98159.19
2023-01-28T05:48:00.476Z,98166.69
2023-01-28T05:51:17.444Z,98167.47
2023-01-28T05:54:29.438Z,98181.13
2023-01-28T05:57:35.450Z,98176.84
2023-01-28T06:00:39.967Z,98174.78
2023-01-28T06:03:43.283Z,98173.03
2023-01-28T06:06:46.655Z,98178.78
2023-01-28T06:09:50.223Z,98179.56
2023-01-28T06:12:56.256Z,98181.84
2023-01-28T06:16:37.825Z,98192.44
2023-01-28T06:20:01.085Z,98194.59
2023-01-28T06:23:06.305Z,98193.22
2023-01-28T06:26:09.723Z,98198.50
2023-01-28T06:29:16.174Z,98201.16
2023-01-28T06:32:18.950Z,98205.72
2023-01-28T06:35:22.187Z,98214.59
2023-01-28T06:38:24.953Z,98214.59
2023-01-28T06:41:27.535Z,98213.13
2023-01-28T06:44:30.913Z,98219.44
2023-01-28T06:47:33.720Z,98223.34
2023-01-28T06:50:36.871Z,98226.69
2023-01-28T06:53:39.679Z,98224.59
2023-01-28T06:56:42.732Z,98231.84
2023-01-28T06:59:45.674Z,98229.59
2023-01-28T07:02:48.576Z,98238.09
2023-01-28T07:05:51.503Z,98237.53
2023-01-28T07:08:54.310Z,98248.19
2023-01-28T07:11:57.473Z,98253.41
2023-01-28T07:15:00.567Z,98251.81
2023-01-28T07:18:04.093Z,98248.59
2023-01-28T07:21:06.983Z,98252.84
2023-01-28T07:24:09.924Z,98257.22
2023-01-28T07:27:13.171Z,98256.25
2023-01-28T07:30:18.058Z,98258.56
2023-01-28T07:33:21.324Z,98256.38
2023-01-28T07:36:24.096Z,98266.19
2023-01-28T07:39:27.273Z,98270.50
2023-01-28T07:42:30.232Z,98266.56
2023-01-28T07:45:39.007Z,98265.66
2023-01-28T07:48:41.731Z,98267.50
2023-01-28T07:51:47.255Z,98266.88
2023-01-28T07:54:50.215Z,98281.34
2023-01-28T07:57:58.249Z,98279.00
2023-01-28T08:01:02.122Z,98281.19
2023-01-28T08:04:06.311Z,98284.34
2023-01-28T08:07:10.413Z,98285.34
2023-01-28T08:10:13.955Z,98292.56
2023-01-28T08:13:19.040Z,98290.22
2023-01-28T08:16:21.812Z,98291.25
2023-01-28T08:19:24.863Z,98293.09
2023-01-28T08:22:28.134Z,98296.50
2023-01-28T08:25:30.901Z,98297.38
2023-01-28T08:28:33.583Z,98302.03
2023-01-28T08:31:36.542Z,98304.06
2023-01-28T08:34:39.719Z,98304.88
2023-01-28T08:37:42.360Z,98296.63
2023-01-28T08:40:46.023Z,98312.88
2023-01-28T08:43:49.103Z,98304.84
2023-01-28T08:46:52.945Z,98316.66
2023-01-28T08:49:58.817Z,98309.00
2023-01-28T08:53:04.920Z,98312.88
2023-01-28T08:56:08.034Z,98316.84
2023-01-28T08:59:13.892Z,98326.13
2023-01-28T09:02:30.732Z,98326.19
2023-01-28T09:05:38.414Z,98323.59
2023-01-28T09:08:42.016Z,98332.38
2023-01-28T09:11:45.417Z,98333.03
2023-01-28T09:14:48.333Z,98339.91
2023-01-28T09:17:51.520Z,98342.16
2023-01-28T09:20:54.113Z,98336.81
2023-01-28T09:23:59.130Z,98334.34
2023-01-28T09:27:02.536Z,98338.94
2023-01-28T09:30:07.609Z,98336.81
2023-01-28T09:33:10.785Z,98336.47
2023-01-28T09:36:14.644Z,98340.47
2023-01-28T09:39:17.637Z,98335.94
2023-01-28T09:42:52.305Z,98342.97
2023-01-28T09:45:59.821Z,98340.56
2023-01-28T09:49:10.385Z,98337.16
2023-01-28T09:52:16.453Z,98342.66
2023-01-28T09:55:36.796Z,98337.34
2023-01-28T09:58:39.720Z,98336.47
2023-01-28T10:01:51.170Z,98331.97
2023-01-28T10:04:57.091Z,98335.16
2023-01-28T10:08:27.020Z,98329.69
2023-01-28T10:11:39.355Z,98320.63
2023-01-28T10:14:45.161Z,98322.47
2023-01-28T10:18:03.865Z,98326.00
2023-01-28T10:21:20.336Z,98314.78
2023-01-28T10:24:37.329Z,98316.97
2023-01-28T10:27:40.651Z,98322.69
2023-01-28T10:30:45.333Z,98325.50
2023-01-28T10:33:48.979Z,98322.69
2023-01-28T10:36:53.000Z,98329.81
2023-01-28T10:39:59.222Z,98329.34
2023-01-28T10:43:02.078Z,98335.50
2023-01-28T10:46:18.102Z,98332.50
2023-01-28T10:49:28.552Z,98326.09
2023-01-28T10:52:32.627Z,98318.84
2023-01-28T10:55:46.538Z,98327.31
2023-01-28T10:59:28.332Z,98321.31
2023-01-28T11:02:38.173Z,98321.25
2023-01-28T11:05:52.643Z,98331.41
2023-01-28T11:08:55.973Z,98327.69
2023-01-28T11:11:59.891Z,98321.09
2023-01-28T11:15:06.142Z,98316.34
2023-01-28T11:18:18.630Z,98326.69
2023-01-28T11:21:27.045Z,98312.50
2023-01-28T11:24:32.711Z,98320.34
2023-01-28T11:27:36.227Z,98314.91
2023-01-28T11:30:40.992Z,98315.97
2023-01-28T11:33:45.268Z,98319.38
2023-01-28T11:36:54.647Z,98319.03
2023-01-28T11:40:21.968Z,98313.25
2023-01-28T11:43:32.088Z,98316.75
2023-01-28T11:46:53.351Z,98327.13
2023-01-28T11:50:18.222Z,98317.59
2023-01-28T11:53:24.389Z,98313.88
2023-01-28T11:56:53.991Z,98316.41
2023-01-28T12:00:12.681Z,98317.09
2023-01-28T12:03:46.293Z,98313.56
2023-01-28T12:07:13.597Z,98323.69
2023-01-28T12:10:46.931Z,98324.06
2023-01-28T12:14:31.638Z,98321.47
2023-01-28T12:18:07.054Z,98312.72
2023-01-28T12:21:42.259Z,98324.78
2023-01-28T12:24:53.742Z,98321.47
2023-01-28T12:28:21.375Z,98319.97
2023-01-28T12:31:51.848Z,98319.34
2023-01-28T12:35:25.939Z,98321.28
2023-01-28T12:38:45.105Z,98319.94
2023-01-28T12:41:53.829Z,98316.31
2023-01-28T12:45:12.580Z,98322.19
2023-01-28T12:48:30.245Z,98322.41
2023-01-28T12:52:01.481Z,98321.75
2023-01-28T12:55:13.675Z,98325.16
2023-01-28T12:58:20.759Z,98334.19
2023-01-28T13:01:28.981Z,98335.13
2023-01-28T13:04:47.848Z,98326.44
2023-01-28T13:07:56.478Z,98318.34
2023-01-28T13:11:03.355Z,98326.53
2023-01-28T13:14:07.196Z,98332.34
2023-01-28T13:17:26.913Z,98332.53
2023-01-28T13:20:39.705Z,98335.63
2023-01-28T13:23:51.038Z,98334.34
2023-01-28T13:26:58.773Z,98329.34
2023-01-28T13:30:54.341Z,98339.03
2023-01-28T13:34:07.862Z,98347.72
2023-01-28T13:37:44.811Z,98349.44
2023-01-28T13:41:09.292Z,98338.03
2023-01-28T13:44:18.842Z,98351.88
2023-01-28T13:47:31.590Z,98349.38
2023-01-28T13:50:43.365Z,98359.38
2023-01-28T13:53:57.090Z,98360.56
2023-01-28T13:57:00.163Z,98361.03
2023-01-28T14:00:31.441Z,98354.09
2023-01-28T14:03:56.652Z,98363.22
2023-01-28T14:07:46.714Z,98365.72
2023-01-28T14:10:57.178Z,98371.47
2023-01-28T14:14:57.847Z,98370.03
2023-01-28T14:18:02.031Z,98383.47
2023-01-28T14:21:18.431Z,98380.22
2023-01-28T14:24:24.912Z,98389.75
2023-01-28T14:27:40.692Z,98387.81
2023-01-28T14:30:55.586Z,98381.69
2023-01-28T14:34:08.040Z,98380.50
2023-01-28T14:37:23.029Z,98375.66
2023-01-28T14:40:26.320Z,98378.81
2023-01-28T14:43:32.193Z,98385.63
2023-01-28T14:46:53.348Z,98390.44
2023-01-28T14:50:12.867Z,98391.63
2023-01-28T14:53:28.649Z,98395.97
2023-01-28T14:56:35.717Z,98402.09
2023-01-28T14:59:50.151Z,98408.94
2023-01-28T15:02:54.446Z,98409.00
2023-01-28T15:06:15.202Z,98420.50
2023-01-28T15:09:21.157Z,98416.69
2023-01-28T15:12:25.405Z,98416.91
2023-01-28T15:15:33.342Z,98422.53
2023-01-28T15:18:45.278Z,98418.19
2023-01-28T15:21:56.855Z,98429.38
2023-01-28T15:25:01.910Z,98421.69
2023-01-28T15:28:05.418Z,98435.28
2023-01-28T15:31:22.250Z,98436.50
2023-01-28T15:34:31.607Z,98433.69
2023-01-28T15:37:36.291Z,98435.13
2023-01-28T15:40:46.094Z,98437.59
2023-01-28T15:43:51.516Z,98438.63
2023-01-28T15:46:59.855Z,98442.78
2023-01-28T15:50:05.702Z,98442.16
2023-01-28T15:53:12.227Z,98441.94
2023-01-28T15:56:16.542Z,98436.25
2023-01-28T15:59:26.776Z,98445.19
2023-01-28T16:02:32.886Z,98452.41
2023-01-28T16:05:43.397Z,98449.69
2023-01-28T16:09:04.952Z,98462.28
2023-01-28T16:12:13.900Z,98466.50
2023-01-28T16:15:21.302Z,98470.56
2023-01-28T16:18:36.251Z,98479.97
2023-01-28T16:21:54.162Z,98485.50
2023-01-28T16:24:57.022Z,98479.31
2023-01-28T16:28:03.247Z,98484.03
2023-01-28T16:31:07.164Z,98491.84
2023-01-28T16:37:15.989Z,98490.16
2023-01-28T16:40:24.031Z,98501.25
2023-01-28T16:43:30.006Z,98496.44
2023-01-28T16:46:35.783Z,98508.06
2023-01-28T16:49:41.875Z,98497.44
2023-01-28T16:52:47.610Z,98512.53
2023-01-28T16:55:54.541Z,98514.66
2023-01-28T16:58:58.312Z,98520.91
2023-01-28T17:02:04.943Z,98522.44
2023-01-28T17:05:13.933Z,98513.09
2023-01-28T17:08:20.764Z,98523.00
2023-01-28T17:11:24.412Z,98519.78
2023-01-28T17:14:31.738Z,98523.41
2023-01-28T17:17:37.451Z,98521.91
2023-01-28T17:20:41.727Z,98527.97
2023-01-28T17:23:46.605Z,98522.94
2023-01-28T17:26:55.277Z,98529.78
2023-01-28T17:29:58.811Z,98523.91
2023-01-28T17:33:12.372Z,98531.25
2023-01-28T17:36:16.105Z,98532.47
2023-01-28T17:39:21.000Z,98542.59
2023-01-28T17:42:25.845Z,98545.59
2023-01-28T17:45:33.008Z,98552.28
2023-01-28T17:48:37.784Z,98550.78
2023-01-28T17:51:41.846Z,98548.78
2023-01-28T17:54:48.323Z,98557.84
2023-01-28T17:57:54.216Z,98556.34
2023-01-28T18:00:58.090Z,98563.25
2023-01-28T18:04:03.613Z,98558.34
2023-01-28T18:07:15.006Z,98574.00
2023-01-28T18:10:22.776Z,98572.59
2023-01-28T18:13:35.229Z,98585.22
2023-01-28T18:16:39.196Z,98577.06
2023-01-28T18:19:42.407Z,98580.91
2023-01-28T18:22:45.896Z,98584.00
2023-01-28T18:25:49.240Z,98591.19
2023-01-28T18:28:55.092Z,98584.09
2023-01-28T18:32:07.213Z,98587.38
2023-01-28T18:35:12.556Z,98588.06
2023-01-28T18:38:16.427Z,98588.84
2023-01-28T18:41:20.171Z,98591.75
2023-01-28T18:44:25.113Z,98599.94
2023-01-28T18:47:30.506Z,98603.44
2023-01-28T18:50:38.269Z,98611.75
2023-01-28T18:53:43.761Z,98605.81
2023-01-28T18:56:49.347Z,98611.50
2023-01-28T18:59:54.451Z,98613.53
2023-01-28T19:02:57.405Z,98615.63
2023-01-28T19:06:15.826Z,98624.34
2023-01-28T19:09:20.483Z,98615.09
2023-01-28T19:12:24.506Z,98628.63
2023-01-28T19:15:31.939Z,98625.09
2023-01-28T19:18:36.035Z,98625.03
2023-01-28T19:21:39.246Z,98632.63
2023-01-28T19:24:44.752Z,98632.50
2023-01-28T19:27:48.413Z,98633.13
2023-01-28T19:30:52.500Z,98652.19
2023-01-28T19:33:57.849Z,98640.81
2023-01-28T19:37:03.997Z,98644.50
2023-01-28T19:40:11.377Z,98640.94
2023-01-28T19:43:14.134Z,98648.19
2023-01-28T19:46:20.748Z,98652.69
2023-01-28T19:49:26.335Z,98659.91
2023-01-28T19:52:31.592Z,98654.75
2023-01-28T19:55:38.879Z,98670.44
2023-01-28T19:58:44.908Z,98667.78
2023-01-28T20:01:48.054Z,98675.59
2023-01-28T20:05:00.759Z,98670.56
2023-01-28T20:08:05.163Z,98681.72
2023-01-28T20:11:15.530Z,98691.19
2023-01-28T20:14:21.258Z,98689.38
2023-01-28T20:17:24.220Z,98702.19
2023-01-28T20:20:28.843Z,98691.78
2023-01-28T20:23:32.216Z,98702.19
2023-01-28T20:26:38.185Z,98694.53
2023-01-28T20:29:43.416Z,98696.09
2023-01-28T20:32:47.022Z,98696.22
2023-01-28T20:35:52.303Z,98702.78
2023-01-28T20:38:55.850Z,98692.72
2023-01-28T20:42:00.857Z,98692.00
2023-01-28T20:45:06.607Z,98703.28
2023-01-28T20:48:10.497Z,98699.69
2023-01-28T20:51:19.520Z,98710.13
2023-01-28T20:54:26.613Z,98721.03
2023-01-28T20:57:29.645Z,98727.00
2023-01-28T21:00:34.400Z,98721.84
2023-01-28T21:03:38.430Z,98716.63
2023-01-28T21:06:46.087Z,98728.47
2023-01-28T21:09:53.119Z,98715.69
2023-01-28T21:12:58.968Z,98728.44
2023-01-28T21:16:03.734Z,98731.22
2023-01-28T21:19:08.185Z,98741.31
2023-01-28T21:22:12.819Z,98738.97
2023-01-28T21:25:18.802Z,98751.41
2023-01-28T21:28:27.563Z,98751.56
2023-01-28T21:31:33.835Z,98755.75
2023-01-28T21:34:37.209Z,98759.88
2023-01-28T21:37:46.664Z,98758.78
2023-01-28T21:40:53.572Z,98758.78
2023-01-28T21:44:00.932Z,98761.34
2023-01-28T21:47:04.981Z,98758.53
2023-01-28T21:50:14.161Z,98761.25
2023-01-28T21:53:21.042Z,98757.09
2023-01-28T21:56:26.967Z,98766.41
2023-01-28T21:59:51.499Z,98763.81
2023-01-28T22:02:55.499Z,98762.34
2023-01-28T22:05:58.930Z,98762.84
2023-01-28T22:09:05.266Z,98768.09
2023-01-28T22:12:13.882Z,98766.09
2023-01-28T22:15:21.553Z,98767.94
2023-01-28T22:18:25.503Z,98774.06
2023-01-28T22:21:31.608Z,98773.34
2023-01-28T22:24:37.846Z,98776.31
2023-01-28T22:27:41.581Z,98773.34
2023-01-28T22:30:46.151Z,98770.44
2023-01-28T22:33:49.706Z,98774.78
2023-01-28T22:36:53.701Z,98781.84
2023-01-28T22:39:56.866Z,98773.09
2023-01-28T22:43:00.967Z,98777.22
2023-01-28T22:46:04.808Z,98774.00
2023-01-28T22:49:08.759Z,98780.72
2023-01-28T22:52:11.890Z,98782.50
2023-01-28T22:55:17.074Z,98775.44
2023-01-28T22:58:20.268Z,98771.84
2023-01-28T23:01:24.647Z,98781.47
2023-01-28T23:04:28.131Z,98793.41
2023-01-28T23:07:31.821Z,98775.31
2023-01-28T23:10:34.455Z,98779.28
2023-01-28T23:14:03.190Z,98778.97
2023-01-28T23:17:39.377Z,98776.19
2023-01-28T23:21:01.051Z,98777.34
2023-01-28T23:24:19.951Z,98787.41
2023-01-28T23:27:24.052Z,98773.84
2023-01-28T23:30:28.654Z,98773.47
2023-01-28T23:33:31.795Z,98772.66
2023-01-28T23:36:36.138Z,98778.03
2023-01-28T23:39:40.041Z,98780.47
2023-01-28T23:42:42.929Z,98775.31
2023-01-28T23:45:45.583Z,98771.94
2023-01-28T23:48:49.731Z,98781.06
2023-01-28T23:51:52.552Z,98768.59
2023-01-28T23:54:55.428Z,98775.31
2023-01-28T23:57:58.163Z,98777.03
